sensor_id;sensor_type;location;lat;lon;timestamp;P1;durP1;ratioP1;P2;durP2;ratioP2
76475;SDS011;65308;50.078;14.854;2023-06-24T00:00:37;3.22;;;1.80;;
76475;SDS011;65308;50.078;14.854;2023-06-24T00:03:04;3.47;;;1.92;;
76475;SDS011;65308;50.078;14.854;2023-06-24T00:05:32;2.83;;;1.77;;
76475;SDS011;65308;50.078;14.854;2023-06-24T00:07:59;2.83;;;1.73;;
76475;SDS011;65308;50.078;14.854;2023-06-24T00:10:27;4.45;;;2.25;;
76475;SDS011;65308;50.078;14.854;2023-06-24T00:12:54;3.50;;;2.10;;
76475;SDS011;65308;50.078;14.854;2023-06-24T00:15:21;3.33;;;2.08;;
76475;SDS011;65308;50.078;14.854;2023-06-24T00:17:49;3.42;;;2.22;;
76475;SDS011;65308;50.078;14.854;2023-06-24T00:20:15;3.65;;;2.13;;
76475;SDS011;65308;50.078;14.854;2023-06-24T00:22:43;3.70;;;2.40;;
76475;SDS011;65308;50.078;14.854;2023-06-24T00:25:13;3.60;;;2.40;;
76475;SDS011;65308;50.078;14.854;2023-06-24T00:27:40;5.28;;;2.63;;
76475;SDS011;65308;50.078;14.854;2023-06-24T00:32:35;6.68;;;2.83;;
76475;SDS011;65308;50.078;14.854;2023-06-24T00:35:03;4.55;;;3.00;;
76475;SDS011;65308;50.078;14.854;2023-06-24T00:37:30;5.50;;;2.83;;
76475;SDS011;65308;50.078;14.854;2023-06-24T00:39:57;5.78;;;3.28;;
76475;SDS011;65308;50.078;14.854;2023-06-24T00:42:23;6.45;;;3.92;;
76475;SDS011;65308;50.078;14.854;2023-06-24T00:44:50;5.07;;;3.53;;
76475;SDS011;65308;50.078;14.854;2023-06-24T00:47:16;5.70;;;3.58;;
76475;SDS011;65308;50.078;14.854;2023-06-24T00:49:44;5.70;;;3.50;;
76475;SDS011;65308;50.078;14.854;2023-06-24T00:52:12;4.90;;;3.50;;
76475;SDS011;65308;50.078;14.854;2023-06-24T00:54:41;5.32;;;3.50;;
76475;SDS011;65308;50.078;14.854;2023-06-24T00:57:08;4.93;;;3.03;;
76475;SDS011;65308;50.078;14.854;2023-06-24T00:59:35;5.10;;;3.60;;
76475;SDS011;65308;50.078;14.854;2023-06-24T01:02:03;5.13;;;3.63;;
76475;SDS011;65308;50.078;14.854;2023-06-24T01:04:30;5.57;;;3.70;;
76475;SDS011;65308;50.078;14.854;2023-06-24T01:06:58;6.38;;;3.58;;
76475;SDS011;65308;50.078;14.854;2023-06-24T01:09:27;5.15;;;3.35;;
76475;SDS011;65308;50.078;14.854;2023-06-24T01:11:54;7.10;;;3.58;;
76475;SDS011;65308;50.078;14.854;2023-06-24T01:14:20;5.53;;;3.45;;
76475;SDS011;65308;50.078;14.854;2023-06-24T01:16:51;6.95;;;3.90;;
76475;SDS011;65308;50.078;14.854;2023-06-24T01:19:27;5.55;;;3.40;;
76475;SDS011;65308;50.078;14.854;2023-06-24T01:22:16;6.72;;;3.95;;
76475;SDS011;65308;50.078;14.854;2023-06-24T01:25:00;5.05;;;3.15;;
76475;SDS011;65308;50.078;14.854;2023-06-24T01:27:46;4.53;;;2.75;;
76475;SDS011;65308;50.078;14.854;2023-06-24T01:30:28;5.07;;;2.90;;
76475;SDS011;65308;50.078;14.854;2023-06-24T01:33:23;4.72;;;2.70;;
76475;SDS011;65308;50.078;14.854;2023-06-24T01:35:58;5.30;;;3.03;;
76475;SDS011;65308;50.078;14.854;2023-06-24T01:38:30;4.93;;;2.95;;
76475;SDS011;65308;50.078;14.854;2023-06-24T01:41:02;4.90;;;3.03;;
76475;SDS011;65308;50.078;14.854;2023-06-24T01:43:30;5.60;;;2.72;;
76475;SDS011;65308;50.078;14.854;2023-06-24T01:46:00;5.45;;;2.95;;
76475;SDS011;65308;50.078;14.854;2023-06-24T01:48:31;4.60;;;3.05;;
76475;SDS011;65308;50.078;14.854;2023-06-24T01:51:01;4.70;;;2.85;;
76475;SDS011;65308;50.078;14.854;2023-06-24T01:53:32;4.53;;;2.90;;
76475;SDS011;65308;50.078;14.854;2023-06-24T01:56:01;5.90;;;3.60;;
76475;SDS011;65308;50.078;14.854;2023-06-24T01:58:29;5.28;;;3.03;;
76475;SDS011;65308;50.078;14.854;2023-06-24T02:00:59;5.10;;;3.03;;
76475;SDS011;65308;50.078;14.854;2023-06-24T02:03:27;5.60;;;3.55;;
76475;SDS011;65308;50.078;14.854;2023-06-24T02:05:58;5.43;;;3.10;;
76475;SDS011;65308;50.078;14.854;2023-06-24T02:08:27;7.93;;;3.15;;
76475;SDS011;65308;50.078;14.854;2023-06-24T02:10:56;5.63;;;3.38;;
76475;SDS011;65308;50.078;14.854;2023-06-24T02:13:24;7.45;;;3.30;;
76475;SDS011;65308;50.078;14.854;2023-06-24T02:15:52;4.60;;;3.10;;
76475;SDS011;65308;50.078;14.854;2023-06-24T02:18:19;5.70;;;3.53;;
76475;SDS011;65308;50.078;14.854;2023-06-24T02:20:49;4.88;;;3.20;;
76475;SDS011;65308;50.078;14.854;2023-06-24T02:23:17;5.65;;;3.20;;
76475;SDS011;65308;50.078;14.854;2023-06-24T02:25:46;6.05;;;3.10;;
76475;SDS011;65308;50.078;14.854;2023-06-24T02:28:13;4.97;;;3.03;;
76475;SDS011;65308;50.078;14.854;2023-06-24T02:30:41;4.50;;;3.10;;
76475;SDS011;65308;50.078;14.854;2023-06-24T02:33:10;5.32;;;3.30;;
76475;SDS011;65308;50.078;14.854;2023-06-24T02:35:37;4.55;;;3.03;;
76475;SDS011;65308;50.078;14.854;2023-06-24T02:38:05;5.82;;;3.30;;
76475;SDS011;65308;50.078;14.854;2023-06-24T02:40:31;5.15;;;3.28;;
76475;SDS011;65308;50.078;14.854;2023-06-24T02:42:59;4.53;;;3.03;;
76475;SDS011;65308;50.078;14.854;2023-06-24T02:45:26;5.88;;;3.30;;
76475;SDS011;65308;50.078;14.854;2023-06-24T02:47:53;4.68;;;3.00;;
76475;SDS011;65308;50.078;14.854;2023-06-24T02:50:22;4.70;;;3.20;;
76475;SDS011;65308;50.078;14.854;2023-06-24T02:52:49;4.68;;;3.25;;
76475;SDS011;65308;50.078;14.854;2023-06-24T02:55:19;5.45;;;3.30;;
76475;SDS011;65308;50.078;14.854;2023-06-24T02:57:46;6.13;;;3.53;;
76475;SDS011;65308;50.078;14.854;2023-06-24T03:00:13;5.10;;;3.35;;
76475;SDS011;65308;50.078;14.854;2023-06-24T03:02:41;5.65;;;3.50;;
76475;SDS011;65308;50.078;14.854;2023-06-24T03:05:09;5.32;;;3.13;;
76475;SDS011;65308;50.078;14.854;2023-06-24T03:07:36;5.60;;;3.55;;
76475;SDS011;65308;50.078;14.854;2023-06-24T03:10:04;5.43;;;3.42;;
76475;SDS011;65308;50.078;14.854;2023-06-24T03:12:33;5.03;;;3.20;;
76475;SDS011;65308;50.078;14.854;2023-06-24T03:15:00;5.80;;;3.58;;
76475;SDS011;65308;50.078;14.854;2023-06-24T03:17:27;6.43;;;3.60;;
76475;SDS011;65308;50.078;14.854;2023-06-24T03:19:53;5.88;;;3.58;;
76475;SDS011;65308;50.078;14.854;2023-06-24T03:22:20;5.47;;;3.60;;
76475;SDS011;65308;50.078;14.854;2023-06-24T03:24:47;6.78;;;3.00;;
76475;SDS011;65308;50.078;14.854;2023-06-24T03:27:14;5.70;;;3.10;;
76475;SDS011;65308;50.078;14.854;2023-06-24T03:29:42;6.38;;;3.80;;
76475;SDS011;65308;50.078;14.854;2023-06-24T03:32:09;5.40;;;3.50;;
76475;SDS011;65308;50.078;14.854;2023-06-24T03:34:35;5.80;;;3.33;;
76475;SDS011;65308;50.078;14.854;2023-06-24T03:37:02;5.43;;;3.38;;
76475;SDS011;65308;50.078;14.854;2023-06-24T03:39:30;5.97;;;3.53;;
76475;SDS011;65308;50.078;14.854;2023-06-24T03:41:56;5.97;;;3.70;;
76475;SDS011;65308;50.078;14.854;2023-06-24T03:44:23;5.43;;;3.60;;
76475;SDS011;65308;50.078;14.854;2023-06-24T03:46:51;5.63;;;3.60;;
76475;SDS011;65308;50.078;14.854;2023-06-24T03:49:18;5.97;;;3.17;;
76475;SDS011;65308;50.078;14.854;2023-06-24T03:51:44;5.75;;;2.97;;
76475;SDS011;65308;50.078;14.854;2023-06-24T03:54:11;5.97;;;3.55;;
76475;SDS011;65308;50.078;14.854;2023-06-24T03:56:37;5.57;;;3.60;;
76475;SDS011;65308;50.078;14.854;2023-06-24T03:59:04;5.13;;;3.20;;
76475;SDS011;65308;50.078;14.854;2023-06-24T04:01:31;7.22;;;3.30;;
76475;SDS011;65308;50.078;14.854;2023-06-24T04:03:59;9.90;;;4.03;;
76475;SDS011;65308;50.078;14.854;2023-06-24T04:06:25;6.55;;;3.55;;
76475;SDS011;65308;50.078;14.854;2023-06-24T04:08:52;6.50;;;3.83;;
76475;SDS011;65308;50.078;14.854;2023-06-24T04:11:19;6.10;;;3.95;;
76475;SDS011;65308;50.078;14.854;2023-06-24T04:13:46;5.60;;;3.75;;
76475;SDS011;65308;50.078;14.854;2023-06-24T04:16:17;6.97;;;3.90;;
76475;SDS011;65308;50.078;14.854;2023-06-24T04:18:44;7.13;;;3.78;;
76475;SDS011;65308;50.078;14.854;2023-06-24T04:21:12;6.15;;;3.70;;
76475;SDS011;65308;50.078;14.854;2023-06-24T04:23:39;7.47;;;4.03;;
76475;SDS011;65308;50.078;14.854;2023-06-24T04:26:06;6.20;;;3.78;;
76475;SDS011;65308;50.078;14.854;2023-06-24T04:28:33;5.78;;;3.60;;
76475;SDS011;65308;50.078;14.854;2023-06-24T04:30:59;5.38;;;3.80;;
76475;SDS011;65308;50.078;14.854;2023-06-24T04:33:29;5.55;;;3.72;;
76475;SDS011;65308;50.078;14.854;2023-06-24T04:36:04;7.93;;;4.15;;
76475;SDS011;65308;50.078;14.854;2023-06-24T04:38:43;8.57;;;3.90;;
76475;SDS011;65308;50.078;14.854;2023-06-24T04:41:11;7.35;;;4.30;;
76475;SDS011;65308;50.078;14.854;2023-06-24T04:43:38;7.43;;;3.80;;
76475;SDS011;65308;50.078;14.854;2023-06-24T04:46:04;9.40;;;4.75;;
76475;SDS011;65308;50.078;14.854;2023-06-24T04:48:31;7.13;;;4.50;;
76475;SDS011;65308;50.078;14.854;2023-06-24T04:50:58;6.25;;;4.38;;
76475;SDS011;65308;50.078;14.854;2023-06-24T04:53:27;6.53;;;4.55;;
76475;SDS011;65308;50.078;14.854;2023-06-24T04:55:56;7.38;;;4.30;;
76475;SDS011;65308;50.078;14.854;2023-06-24T04:58:23;8.38;;;4.72;;
76475;SDS011;65308;50.078;14.854;2023-06-24T05:00:50;7.20;;;5.05;;
76475;SDS011;65308;50.078;14.854;2023-06-24T05:03:16;7.70;;;5.10;;
76475;SDS011;65308;50.078;14.854;2023-06-24T05:05:46;8.10;;;5.18;;
76475;SDS011;65308;50.078;14.854;2023-06-24T05:08:14;9.77;;;4.72;;
76475;SDS011;65308;50.078;14.854;2023-06-24T05:10:41;7.20;;;5.18;;
76475;SDS011;65308;50.078;14.854;2023-06-24T05:13:09;7.30;;;4.63;;
76475;SDS011;65308;50.078;14.854;2023-06-24T05:15:36;10.35;;;5.65;;
76475;SDS011;65308;50.078;14.854;2023-06-24T05:18:02;9.40;;;5.93;;
76475;SDS011;65308;50.078;14.854;2023-06-24T05:20:29;9.27;;;5.28;;
76475;SDS011;65308;50.078;14.854;2023-06-24T05:22:55;8.98;;;5.10;;
76475;SDS011;65308;50.078;14.854;2023-06-24T05:25:22;9.18;;;5.30;;
76475;SDS011;65308;50.078;14.854;2023-06-24T05:27:49;8.07;;;5.38;;
76475;SDS011;65308;50.078;14.854;2023-06-24T05:30:17;8.93;;;5.20;;
76475;SDS011;65308;50.078;14.854;2023-06-24T05:32:44;8.95;;;5.05;;
76475;SDS011;65308;50.078;14.854;2023-06-24T05:35:10;6.63;;;4.40;;
76475;SDS011;65308;50.078;14.854;2023-06-24T05:37:37;7.68;;;4.88;;
76475;SDS011;65308;50.078;14.854;2023-06-24T05:40:04;8.30;;;4.80;;
76475;SDS011;65308;50.078;14.854;2023-06-24T05:42:32;7.50;;;4.47;;
76475;SDS011;65308;50.078;14.854;2023-06-24T05:44:59;8.45;;;4.45;;
76475;SDS011;65308;50.078;14.854;2023-06-24T05:47:27;5.65;;;3.97;;
76475;SDS011;65308;50.078;14.854;2023-06-24T05:49:57;6.65;;;4.13;;
76475;SDS011;65308;50.078;14.854;2023-06-24T05:52:26;6.68;;;4.25;;
76475;SDS011;65308;50.078;14.854;2023-06-24T05:54:54;7.05;;;4.30;;
76475;SDS011;65308;50.078;14.854;2023-06-24T05:57:21;5.88;;;4.00;;
76475;SDS011;65308;50.078;14.854;2023-06-24T05:59:51;7.72;;;4.10;;
76475;SDS011;65308;50.078;14.854;2023-06-24T06:02:18;8.25;;;4.18;;
76475;SDS011;65308;50.078;14.854;2023-06-24T06:04:47;6.68;;;4.00;;
76475;SDS011;65308;50.078;14.854;2023-06-24T06:07:13;5.72;;;3.55;;
76475;SDS011;65308;50.078;14.854;2023-06-24T06:09:40;7.45;;;4.32;;
76475;SDS011;65308;50.078;14.854;2023-06-24T06:12:08;6.00;;;3.88;;
76475;SDS011;65308;50.078;14.854;2023-06-24T06:14:37;6.50;;;3.95;;
76475;SDS011;65308;50.078;14.854;2023-06-24T06:17:04;7.53;;;4.50;;
76475;SDS011;65308;50.078;14.854;2023-06-24T06:19:31;6.05;;;4.22;;
76475;SDS011;65308;50.078;14.854;2023-06-24T06:21:59;6.90;;;4.03;;
76475;SDS011;65308;50.078;14.854;2023-06-24T06:24:25;6.95;;;4.70;;
76475;SDS011;65308;50.078;14.854;2023-06-24T06:26:52;7.57;;;4.90;;
76475;SDS011;65308;50.078;14.854;2023-06-24T06:29:18;7.15;;;4.63;;
76475;SDS011;65308;50.078;14.854;2023-06-24T06:31:45;7.68;;;4.65;;
76475;SDS011;65308;50.078;14.854;2023-06-24T06:34:12;5.88;;;4.30;;
76475;SDS011;65308;50.078;14.854;2023-06-24T06:36:38;6.97;;;4.70;;
76475;SDS011;65308;50.078;14.854;2023-06-24T06:39:06;8.80;;;4.88;;
76475;SDS011;65308;50.078;14.854;2023-06-24T06:41:33;7.18;;;4.88;;
76475;SDS011;65308;50.078;14.854;2023-06-24T06:44:00;6.10;;;4.30;;
76475;SDS011;65308;50.078;14.854;2023-06-24T06:46:27;6.30;;;4.47;;
76475;SDS011;65308;50.078;14.854;2023-06-24T06:48:54;8.55;;;5.00;;
76475;SDS011;65308;50.078;14.854;2023-06-24T06:51:21;8.30;;;5.15;;
76475;SDS011;65308;50.078;14.854;2023-06-24T06:53:49;7.15;;;4.70;;
76475;SDS011;65308;50.078;14.854;2023-06-24T06:56:18;7.43;;;4.85;;
76475;SDS011;65308;50.078;14.854;2023-06-24T06:58:45;6.90;;;4.90;;
76475;SDS011;65308;50.078;14.854;2023-06-24T07:01:11;7.20;;;5.57;;
76475;SDS011;65308;50.078;14.854;2023-06-24T07:03:38;8.68;;;4.75;;
76475;SDS011;65308;50.078;14.854;2023-06-24T07:06:05;7.40;;;4.90;;
76475;SDS011;65308;50.078;14.854;2023-06-24T07:08:32;7.45;;;5.25;;
76475;SDS011;65308;50.078;14.854;2023-06-24T07:10:58;9.02;;;5.72;;
76475;SDS011;65308;50.078;14.854;2023-06-24T07:13:26;10.05;;;6.00;;
76475;SDS011;65308;50.078;14.854;2023-06-24T07:15:53;8.32;;;6.15;;
76475;SDS011;65308;50.078;14.854;2023-06-24T07:18:19;9.10;;;6.20;;
76475;SDS011;65308;50.078;14.854;2023-06-24T07:20:46;8.57;;;5.32;;
76475;SDS011;65308;50.078;14.854;2023-06-24T07:25:40;9.20;;;5.90;;
76475;SDS011;65308;50.078;14.854;2023-06-24T07:28:07;9.82;;;6.10;;
76475;SDS011;65308;50.078;14.854;2023-06-24T07:30:35;10.90;;;7.00;;
76475;SDS011;65308;50.078;14.854;2023-06-24T07:33:02;9.27;;;6.03;;
76475;SDS011;65308;50.078;14.854;2023-06-24T07:35:30;13.57;;;6.88;;
76475;SDS011;65308;50.078;14.854;2023-06-24T07:37:57;9.98;;;6.32;;
76475;SDS011;65308;50.078;14.854;2023-06-24T07:40:23;10.77;;;7.25;;
76475;SDS011;65308;50.078;14.854;2023-06-24T07:42:50;11.50;;;7.95;;
76475;SDS011;65308;50.078;14.854;2023-06-24T07:45:17;11.32;;;7.10;;
76475;SDS011;65308;50.078;14.854;2023-06-24T07:47:45;13.88;;;7.95;;
76475;SDS011;65308;50.078;14.854;2023-06-24T07:50:11;11.13;;;8.30;;
76475;SDS011;65308;50.078;14.854;2023-06-24T07:52:38;11.65;;;7.70;;
76475;SDS011;65308;50.078;14.854;2023-06-24T07:55:05;10.60;;;7.75;;
76475;SDS011;65308;50.078;14.854;2023-06-24T07:57:32;10.57;;;7.97;;
76475;SDS011;65308;50.078;14.854;2023-06-24T07:59:58;11.57;;;7.95;;
76475;SDS011;65308;50.078;14.854;2023-06-24T08:02:25;12.95;;;7.25;;
76475;SDS011;65308;50.078;14.854;2023-06-24T08:04:54;11.15;;;8.05;;
76475;SDS011;65308;50.078;14.854;2023-06-24T08:07:20;11.98;;;7.80;;
76475;SDS011;65308;50.078;14.854;2023-06-24T08:09:47;12.38;;;8.05;;
76475;SDS011;65308;50.078;14.854;2023-06-24T08:12:14;11.88;;;8.07;;
76475;SDS011;65308;50.078;14.854;2023-06-24T08:14:40;11.07;;;7.82;;
76475;SDS011;65308;50.078;14.854;2023-06-24T08:17:07;10.65;;;7.75;;
76475;SDS011;65308;50.078;14.854;2023-06-24T08:19:33;9.38;;;7.53;;
76475;SDS011;65308;50.078;14.854;2023-06-24T08:22:01;9.65;;;7.07;;
76475;SDS011;65308;50.078;14.854;2023-06-24T08:24:28;12.23;;;8.27;;
76475;SDS011;65308;50.078;14.854;2023-06-24T08:26:55;11.93;;;7.82;;
76475;SDS011;65308;50.078;14.854;2023-06-24T08:29:21;10.57;;;7.95;;
76475;SDS011;65308;50.078;14.854;2023-06-24T08:31:48;9.48;;;7.70;;
76475;SDS011;65308;50.078;14.854;2023-06-24T08:34:15;10.25;;;8.60;;
76475;SDS011;65308;50.078;14.854;2023-06-24T08:36:42;11.30;;;7.50;;
76475;SDS011;65308;50.078;14.854;2023-06-24T08:39:10;10.20;;;7.80;;
76475;SDS011;65308;50.078;14.854;2023-06-24T08:41:37;9.25;;;7.75;;
76475;SDS011;65308;50.078;14.854;2023-06-24T08:44:03;10.18;;;8.45;;
76475;SDS011;65308;50.078;14.854;2023-06-24T08:46:30;8.93;;;8.02;;
76475;SDS011;65308;50.078;14.854;2023-06-24T08:49:10;10.38;;;8.77;;
76475;SDS011;65308;50.078;14.854;2023-06-24T08:51:43;8.70;;;7.80;;
76475;SDS011;65308;50.078;14.854;2023-06-24T08:54:14;11.70;;;8.75;;
76475;SDS011;65308;50.078;14.854;2023-06-24T08:56:42;10.43;;;9.32;;
76475;SDS011;65308;50.078;14.854;2023-06-24T08:59:09;8.88;;;7.97;;
76475;SDS011;65308;50.078;14.854;2023-06-24T09:01:35;8.95;;;8.05;;
76475;SDS011;65308;50.078;14.854;2023-06-24T09:04:02;10.70;;;9.60;;
76475;SDS011;65308;50.078;14.854;2023-06-24T09:06:30;9.38;;;8.48;;
76475;SDS011;65308;50.078;14.854;2023-06-24T09:08:57;10.18;;;9.18;;
76475;SDS011;65308;50.078;14.854;2023-06-24T09:11:25;9.25;;;8.35;;
76475;SDS011;65308;50.078;14.854;2023-06-24T09:13:56;9.30;;;8.50;;
76475;SDS011;65308;50.078;14.854;2023-06-24T09:16:30;8.90;;;8.00;;
76475;SDS011;65308;50.078;14.854;2023-06-24T09:18:59;10.38;;;9.27;;
76475;SDS011;65308;50.078;14.854;2023-06-24T09:21:26;9.98;;;8.98;;
76475;SDS011;65308;50.078;14.854;2023-06-24T09:23:56;9.98;;;8.85;;
76475;SDS011;65308;50.078;14.854;2023-06-24T09:26:24;10.75;;;9.50;;
76475;SDS011;65308;50.078;14.854;2023-06-24T09:28:53;9.13;;;8.00;;
76475;SDS011;65308;50.078;14.854;2023-06-24T09:31:20;11.13;;;9.15;;
76475;SDS011;65308;50.078;14.854;2023-06-24T09:33:48;9.82;;;8.93;;
76475;SDS011;65308;50.078;14.854;2023-06-24T09:36:15;9.70;;;8.75;;
76475;SDS011;65308;50.078;14.854;2023-06-24T09:38:42;10.23;;;9.30;;
76475;SDS011;65308;50.078;14.854;2023-06-24T09:41:10;11.00;;;9.77;;
76475;SDS011;65308;50.078;14.854;2023-06-24T09:43:38;9.65;;;8.85;;
76475;SDS011;65308;50.078;14.854;2023-06-24T09:46:09;9.82;;;9.02;;
76475;SDS011;65308;50.078;14.854;2023-06-24T09:48:35;10.50;;;9.68;;
76475;SDS011;65308;50.078;14.854;2023-06-24T09:51:03;10.52;;;9.63;;
76475;SDS011;65308;50.078;14.854;2023-06-24T09:53:30;9.00;;;8.20;;
76475;SDS011;65308;50.078;14.854;2023-06-24T09:55:58;8.75;;;7.95;;
76475;SDS011;65308;50.078;14.854;2023-06-24T09:58:31;9.05;;;8.25;;
76475;SDS011;65308;50.078;14.854;2023-06-24T10:01:04;9.73;;;8.93;;
76475;SDS011;65308;50.078;14.854;2023-06-24T10:03:32;9.43;;;8.57;;
76475;SDS011;65308;50.078;14.854;2023-06-24T10:05:59;9.30;;;8.60;;
76475;SDS011;65308;50.078;14.854;2023-06-24T10:08:26;11.35;;;10.55;;
76475;SDS011;65308;50.078;14.854;2023-06-24T10:10:54;11.18;;;10.10;;
76475;SDS011;65308;50.078;14.854;2023-06-24T10:13:20;10.10;;;9.27;;
76475;SDS011;65308;50.078;14.854;2023-06-24T10:15:47;9.48;;;8.60;;
76475;SDS011;65308;50.078;14.854;2023-06-24T10:18:35;9.07;;;8.18;;
76475;SDS011;65308;50.078;14.854;2023-06-24T10:21:03;8.07;;;7.28;;
76475;SDS011;65308;50.078;14.854;2023-06-24T10:23:31;7.65;;;6.95;;
76475;SDS011;65308;50.078;14.854;2023-06-24T10:25:59;7.90;;;6.43;;
76475;SDS011;65308;50.078;14.854;2023-06-24T10:28:26;7.22;;;6.53;;
76475;SDS011;65308;50.078;14.854;2023-06-24T10:30:56;8.65;;;7.85;;
76475;SDS011;65308;50.078;14.854;2023-06-24T10:33:23;8.02;;;7.22;;
76475;SDS011;65308;50.078;14.854;2023-06-24T10:35:52;7.28;;;6.43;;
76475;SDS011;65308;50.078;14.854;2023-06-24T10:38:19;7.32;;;6.63;;
76475;SDS011;65308;50.078;14.854;2023-06-24T10:40:45;8.57;;;7.07;;
76475;SDS011;65308;50.078;14.854;2023-06-24T10:43:27;7.18;;;6.45;;
76475;SDS011;65308;50.078;14.854;2023-06-24T10:45:56;7.32;;;5.63;;
76475;SDS011;65308;50.078;14.854;2023-06-24T10:48:24;6.40;;;5.25;;
76475;SDS011;65308;50.078;14.854;2023-06-24T10:53:19;6.90;;;6.00;;
76475;SDS011;65308;50.078;14.854;2023-06-24T10:55:48;5.80;;;5.13;;
76475;SDS011;65308;50.078;14.854;2023-06-24T10:58:14;6.65;;;5.95;;
76475;SDS011;65308;50.078;14.854;2023-06-24T11:00:42;5.93;;;4.90;;
76475;SDS011;65308;50.078;14.854;2023-06-24T11:03:11;8.77;;;5.32;;
76475;SDS011;65308;50.078;14.854;2023-06-24T11:05:39;6.32;;;5.05;;
76475;SDS011;65308;50.078;14.854;2023-06-24T11:08:08;5.97;;;4.47;;
76475;SDS011;65308;50.078;14.854;2023-06-24T11:10:41;6.05;;;4.32;;
76475;SDS011;65308;50.078;14.854;2023-06-24T11:13:09;6.18;;;4.32;;
76475;SDS011;65308;50.078;14.854;2023-06-24T11:15:36;6.43;;;4.50;;
76475;SDS011;65308;50.078;14.854;2023-06-24T11:18:04;5.45;;;4.60;;
76475;SDS011;65308;50.078;14.854;2023-06-24T11:20:31;5.93;;;4.85;;
76475;SDS011;65308;50.078;14.854;2023-06-24T11:22:57;7.55;;;5.03;;
76475;SDS011;65308;50.078;14.854;2023-06-24T11:25:25;5.63;;;4.43;;
76475;SDS011;65308;50.078;14.854;2023-06-24T11:27:52;5.95;;;4.53;;
76475;SDS011;65308;50.078;14.854;2023-06-24T11:30:19;6.07;;;4.68;;
76475;SDS011;65308;50.078;14.854;2023-06-24T11:35:15;6.47;;;4.35;;
76475;SDS011;65308;50.078;14.854;2023-06-24T11:37:42;5.90;;;4.53;;
76475;SDS011;65308;50.078;14.854;2023-06-24T11:40:10;6.75;;;4.53;;
76475;SDS011;65308;50.078;14.854;2023-06-24T11:42:40;5.28;;;4.47;;
76475;SDS011;65308;50.078;14.854;2023-06-24T11:45:10;6.47;;;4.70;;
76475;SDS011;65308;50.078;14.854;2023-06-24T11:47:38;6.15;;;4.72;;
76475;SDS011;65308;50.078;14.854;2023-06-24T11:50:05;5.75;;;4.75;;
76475;SDS011;65308;50.078;14.854;2023-06-24T11:52:42;5.78;;;4.30;;
76475;SDS011;65308;50.078;14.854;2023-06-24T11:55:16;6.32;;;4.85;;
76475;SDS011;65308;50.078;14.854;2023-06-24T12:00:14;6.63;;;4.40;;
76475;SDS011;65308;50.078;14.854;2023-06-24T12:02:42;6.25;;;5.00;;
76475;SDS011;65308;50.078;14.854;2023-06-24T12:05:09;6.22;;;4.75;;
76475;SDS011;65308;50.078;14.854;2023-06-24T12:07:36;6.25;;;4.88;;
76475;SDS011;65308;50.078;14.854;2023-06-24T12:10:03;5.50;;;4.47;;
76475;SDS011;65308;50.078;14.854;2023-06-24T12:12:30;6.15;;;5.00;;
76475;SDS011;65308;50.078;14.854;2023-06-24T12:14:58;5.47;;;4.25;;
76475;SDS011;65308;50.078;14.854;2023-06-24T12:17:24;5.95;;;4.38;;
76475;SDS011;65308;50.078;14.854;2023-06-24T12:19:51;9.10;;;5.10;;
76475;SDS011;65308;50.078;14.854;2023-06-24T12:24:45;6.70;;;4.82;;
76475;SDS011;65308;50.078;14.854;2023-06-24T12:27:12;7.32;;;5.78;;
76475;SDS011;65308;50.078;14.854;2023-06-24T12:29:38;6.25;;;5.65;;
76475;SDS011;65308;50.078;14.854;2023-06-24T12:32:07;7.13;;;5.72;;
76475;SDS011;65308;50.078;14.854;2023-06-24T12:34:34;7.60;;;5.60;;
76475;SDS011;65308;50.078;14.854;2023-06-24T12:37:01;7.25;;;6.03;;
76475;SDS011;65308;50.078;14.854;2023-06-24T12:39:27;7.10;;;5.82;;
76475;SDS011;65308;50.078;14.854;2023-06-24T12:41:54;7.20;;;5.78;;
76475;SDS011;65308;50.078;14.854;2023-06-24T12:44:21;6.63;;;5.80;;
76475;SDS011;65308;50.078;14.854;2023-06-24T12:46:48;6.40;;;5.40;;
76475;SDS011;65308;50.078;14.854;2023-06-24T12:49:16;6.30;;;5.43;;
76475;SDS011;65308;50.078;14.854;2023-06-24T12:51:43;6.93;;;5.82;;
76475;SDS011;65308;50.078;14.854;2023-06-24T12:54:10;6.13;;;5.50;;
76475;SDS011;65308;50.078;14.854;2023-06-24T12:56:40;8.70;;;6.22;;
76475;SDS011;65308;50.078;14.854;2023-06-24T12:59:07;8.30;;;6.30;;
76475;SDS011;65308;50.078;14.854;2023-06-24T13:01:39;7.60;;;5.72;;
76475;SDS011;65308;50.078;14.854;2023-06-24T13:04:09;8.00;;;6.30;;
76475;SDS011;65308;50.078;14.854;2023-06-24T13:06:38;6.80;;;5.75;;
76475;SDS011;65308;50.078;14.854;2023-06-24T13:09:05;9.32;;;6.68;;
76475;SDS011;65308;50.078;14.854;2023-06-24T13:11:35;8.30;;;6.53;;
76475;SDS011;65308;50.078;14.854;2023-06-24T13:14:02;8.32;;;6.40;;
76475;SDS011;65308;50.078;14.854;2023-06-24T13:16:29;7.70;;;6.72;;
76475;SDS011;65308;50.078;14.854;2023-06-24T13:18:58;7.95;;;6.00;;
76475;SDS011;65308;50.078;14.854;2023-06-24T13:21:24;6.97;;;6.07;;
76475;SDS011;65308;50.078;14.854;2023-06-24T13:23:53;7.85;;;6.15;;
76475;SDS011;65308;50.078;14.854;2023-06-24T13:26:27;8.15;;;6.20;;
76475;SDS011;65308;50.078;14.854;2023-06-24T13:28:54;7.35;;;6.15;;
76475;SDS011;65308;50.078;14.854;2023-06-24T13:31:20;7.68;;;6.18;;
76475;SDS011;65308;50.078;14.854;2023-06-24T13:33:47;7.15;;;6.18;;
76475;SDS011;65308;50.078;14.854;2023-06-24T13:36:25;6.78;;;5.63;;
76475;SDS011;65308;50.078;14.854;2023-06-24T13:38:57;8.55;;;6.20;;
76475;SDS011;65308;50.078;14.854;2023-06-24T13:41:24;7.05;;;5.72;;
76475;SDS011;65308;50.078;14.854;2023-06-24T13:43:51;7.53;;;5.85;;
76475;SDS011;65308;50.078;14.854;2023-06-24T13:46:18;8.45;;;5.80;;
76475;SDS011;65308;50.078;14.854;2023-06-24T13:48:45;6.57;;;5.22;;
76475;SDS011;65308;50.078;14.854;2023-06-24T13:51:13;7.32;;;5.65;;
76475;SDS011;65308;50.078;14.854;2023-06-24T13:53:41;7.05;;;5.53;;
76475;SDS011;65308;50.078;14.854;2023-06-24T13:56:10;8.27;;;5.88;;
76475;SDS011;65308;50.078;14.854;2023-06-24T13:58:36;6.75;;;5.05;;
76475;SDS011;65308;50.078;14.854;2023-06-24T14:01:03;6.32;;;5.28;;
76475;SDS011;65308;50.078;14.854;2023-06-24T14:03:29;6.78;;;5.05;;
76475;SDS011;65308;50.078;14.854;2023-06-24T14:05:56;6.60;;;5.35;;
76475;SDS011;65308;50.078;14.854;2023-06-24T14:08:23;6.28;;;4.93;;
76475;SDS011;65308;50.078;14.854;2023-06-24T14:10:50;7.45;;;5.18;;
76475;SDS011;65308;50.078;14.854;2023-06-24T14:13:18;6.88;;;4.90;;
76475;SDS011;65308;50.078;14.854;2023-06-24T14:15:46;6.18;;;4.80;;
76475;SDS011;65308;50.078;14.854;2023-06-24T14:18:12;7.93;;;4.85;;
76475;SDS011;65308;50.078;14.854;2023-06-24T14:20:39;6.80;;;4.38;;
76475;SDS011;65308;50.078;14.854;2023-06-24T14:23:06;6.45;;;5.40;;
76475;SDS011;65308;50.078;14.854;2023-06-24T14:25:32;6.03;;;4.65;;
76475;SDS011;65308;50.078;14.854;2023-06-24T14:27:59;6.38;;;5.47;;
76475;SDS011;65308;50.078;14.854;2023-06-24T14:30:27;6.28;;;4.85;;
76475;SDS011;65308;50.078;14.854;2023-06-24T14:32:53;6.68;;;5.43;;
76475;SDS011;65308;50.078;14.854;2023-06-24T14:35:20;5.70;;;4.72;;
76475;SDS011;65308;50.078;14.854;2023-06-24T14:37:47;6.63;;;4.93;;
76475;SDS011;65308;50.078;14.854;2023-06-24T14:40:13;5.85;;;4.80;;
76475;SDS011;65308;50.078;14.854;2023-06-24T14:42:40;5.85;;;4.38;;
76475;SDS011;65308;50.078;14.854;2023-06-24T14:45:07;7.13;;;5.10;;
76475;SDS011;65308;50.078;14.854;2023-06-24T14:47:35;10.43;;;5.13;;
76475;SDS011;65308;50.078;14.854;2023-06-24T14:50:02;7.15;;;5.10;;
76475;SDS011;65308;50.078;14.854;2023-06-24T14:52:30;6.95;;;4.97;;